createdAt,value
2023-09-18T00:01:22.967Z,93.53
2023-09-18T00:03:49.691Z,93.43
2023-09-18T00:06:16.603Z,93.73
2023-09-18T00:08:47.131Z,93.57
2023-09-18T00:11:14.047Z,93.45
2023-09-18T00:13:40.955Z,93.71
2023-09-18T00:16:07.832Z,93.65
2023-09-18T00:18:34.966Z,93.59
2023-09-18T00:21:01.942Z,93.74
2023-09-18T00:23:28.728Z,93.63
2023-09-18T00:25:56.828Z,93.59
2023-09-18T00:28:23.696Z,93.59
2023-09-18T00:30:51.572Z,93.67
2023-09-18T00:33:20.644Z,93.59
2023-09-18T00:35:48.372Z,93.67
2023-09-18T00:38:15.823Z,93.76
2023-09-18T00:40:42.693Z,93.74
2023-09-18T00:43:12.007Z,93.61
2023-09-18T00:45:42.921Z,93.63
2023-09-18T00:48:10.336Z,93.66
2023-09-18T00:50:38.496Z,93.74
2023-09-18T00:53:06.477Z,93.74
2023-09-18T00:55:33.436Z,93.67
2023-09-18T00:58:00.371Z,93.59
2023-09-18T01:00:28.589Z,93.70
2023-09-18T01:02:55.633Z,93.66
2023-09-18T01:05:22.559Z,93.68
2023-09-18T01:07:49.380Z,93.86
2023-09-18T01:10:18.158Z,93.96
2023-09-18T01:12:48.024Z,93.80
2023-09-18T01:15:21.954Z,93.68
2023-09-18T01:17:50.966Z,93.91
2023-09-18T01:20:18.359Z,93.85
2023-09-18T01:22:46.765Z,93.96
2023-09-18T01:25:13.588Z,93.96
2023-09-18T01:27:40.323Z,93.80
2023-09-18T01:30:08.013Z,93.80
2023-09-18T01:32:37.955Z,93.98
2023-09-18T01:35:09.515Z,93.98
2023-09-18T01:37:38.432Z,93.88
2023-09-18T01:40:08.888Z,93.77
2023-09-18T01:42:36.421Z,93.82
2023-09-18T01:45:04.178Z,93.86
2023-09-18T01:47:31.114Z,93.89
2023-09-18T01:49:58.058Z,94.16
2023-09-18T01:52:24.943Z,93.80
2023-09-18T01:54:51.907Z,94.00
2023-09-18T01:57:19.992Z,93.91
2023-09-18T01:59:47.245Z,93.81
2023-09-18T02:02:18.875Z,93.96
2023-09-18T02:05:06.831Z,93.88
2023-09-18T02:07:37.191Z,93.89
2023-09-18T02:10:04.735Z,93.85
2023-09-18T02:12:32.738Z,93.89
2023-09-18T02:15:02.274Z,93.81
2023-09-18T02:17:29.044Z,93.79
2023-09-18T02:19:55.904Z,93.88
2023-09-18T02:22:22.795Z,93.95
2023-09-18T02:24:49.557Z,93.89
2023-09-18T02:27:18.777Z,94.01
2023-09-18T02:29:47.205Z,93.75
2023-09-18T02:32:14.109Z,93.94
2023-09-18T02:34:41.828Z,93.78
2023-09-18T02:37:08.585Z,93.90
2023-09-18T02:39:35.309Z,93.98
2023-09-18T02:42:02.073Z,93.87
2023-09-18T02:44:29.193Z,93.97
2023-09-18T02:46:57.365Z,93.90
2023-09-18T02:49:24.155Z,93.83
2023-09-18T02:51:51.042Z,93.96
2023-09-18T02:54:17.881Z,93.92
2023-09-18T02:56:44.729Z,94.04
2023-09-18T02:59:11.544Z,94.11
2023-09-18T03:01:38.299Z,94.16
2023-09-18T03:04:07.080Z,94.01
2023-09-18T03:06:33.895Z,94.07
2023-09-18T03:09:00.580Z,94.11
2023-09-18T03:11:30.014Z,94.13
2023-09-18T03:13:56.820Z,94.12
2023-09-18T03:16:23.806Z,94.03
2023-09-18T03:18:51.097Z,94.16
2023-09-18T03:21:19.450Z,94.14
2023-09-18T03:23:46.273Z,94.24
2023-09-18T03:26:12.982Z,94.21
2023-09-18T03:28:40.173Z,94.05
2023-09-18T03:31:08.157Z,94.20
2023-09-18T03:33:34.983Z,94.39
2023-09-18T03:36:05.980Z,94.52
2023-09-18T03:38:36.552Z,94.60
2023-09-18T03:41:03.510Z,94.27
2023-09-18T03:43:30.417Z,94.52
2023-09-18T03:46:04.398Z,94.27
2023-09-18T03:48:37.321Z,94.28
2023-09-18T03:51:04.919Z,94.25
2023-09-18T03:53:31.866Z,94.34
2023-09-18T03:56:00.201Z,94.14
2023-09-18T03:58:27.857Z,94.16
2023-09-18T04:00:54.756Z,94.19
2023-09-18T04:03:21.643Z,94.14
2023-09-18T04:05:48.564Z,94.28
2023-09-18T04:08:15.362Z,94.23
2023-09-18T04:10:42.140Z,93.92
2023-09-18T04:13:10.550Z,94.36
2023-09-18T04:15:38.981Z,94.24
2023-09-18T04:18:08.976Z,94.26
2023-09-18T04:20:37.189Z,94.16
2023-09-18T04:23:24.736Z,94.13
2023-09-18T04:25:52.075Z,94.08
2023-09-18T04:28:21.429Z,94.11
2023-09-18T04:30:48.563Z,94.03
2023-09-18T04:33:16.091Z,94.12
2023-09-18T04:35:44.405Z,94.33
2023-09-18T04:38:12.930Z,94.47
2023-09-18T04:40:41.943Z,94.46
2023-09-18T04:43:09.256Z,94.40
2023-09-18T04:45:37.408Z,94.48
2023-09-18T04:48:07.007Z,94.48
2023-09-18T04:50:35.193Z,94.34
2023-09-18T04:53:02.114Z,94.55
2023-09-18T04:55:28.872Z,94.50
2023-09-18T04:57:55.576Z,94.61
2023-09-18T05:00:26.337Z,94.68
2023-09-18T05:02:54.688Z,94.68
2023-09-18T05:05:22.211Z,94.79
2023-09-18T05:07:49.138Z,94.75
2023-09-18T05:10:15.956Z,94.63
2023-09-18T05:12:51.723Z,94.85
2023-09-18T05:15:18.481Z,94.75
2023-09-18T05:17:53.789Z,94.81
2023-09-18T05:20:25.283Z,94.75
2023-09-18T05:22:54.266Z,94.78
2023-09-18T05:25:22.961Z,94.99
2023-09-18T05:27:50.992Z,94.64
2023-09-18T05:30:24.433Z,94.80
2023-09-18T05:32:51.283Z,94.79
2023-09-18T05:35:18.940Z,94.89
2023-09-18T05:37:47.163Z,94.67
2023-09-18T05:40:15.004Z,94.83
2023-09-18T05:42:45.525Z,94.47
2023-09-18T05:45:12.899Z,94.68
2023-09-18T05:47:40.223Z,94.79
2023-09-18T05:50:09.359Z,94.65
2023-09-18T05:52:36.425Z,94.65
2023-09-18T05:55:06.139Z,94.71
2023-09-18T05:57:33.169Z,94.81
2023-09-18T06:00:00.074Z,94.91
2023-09-18T06:02:27.222Z,95.11
2023-09-18T06:04:56.888Z,94.98
2023-09-18T06:07:25.823Z,94.98
2023-09-18T06:09:52.693Z,94.98
2023-09-18T06:12:20.959Z,94.91
2023-09-18T06:14:49.054Z,95.07
2023-09-18T06:17:16.514Z,95.13
2023-09-18T06:19:47.104Z,95.30
2023-09-18T06:22:14.573Z,95.27
2023-09-18T06:24:41.403Z,95.23
2023-09-18T06:27:08.133Z,95.14
2023-09-18T06:29:38.944Z,95.18
2023-09-18T06:32:07.184Z,95.25
2023-09-18T06:34:34.049Z,95.17
2023-09-18T06:37:00.858Z,95.43
2023-09-18T06:39:27.618Z,95.25
2023-09-18T06:41:54.453Z,95.25
2023-09-18T06:44:22.895Z,95.24
2023-09-18T06:46:51.203Z,95.33
2023-09-18T06:49:17.964Z,95.33
2023-09-18T06:51:44.723Z,95.53
2023-09-18T06:54:11.930Z,95.42
2023-09-18T06:56:38.717Z,95.73
2023-09-18T06:59:06.474Z,95.67
2023-09-18T07:01:34.582Z,95.55
2023-09-18T07:04:03.141Z,95.65
2023-09-18T07:06:30.154Z,95.52
2023-09-18T07:08:57.537Z,95.29
2023-09-18T07:11:26.316Z,95.55
2023-09-18T07:13:53.295Z,95.55
2023-09-18T07:16:20.280Z,95.35
2023-09-18T07:18:47.240Z,95.24
2023-09-18T07:21:15.685Z,95.17
2023-09-18T07:23:42.765Z,95.33
2023-09-18T07:26:10.002Z,95.11
2023-09-18T07:28:36.805Z,94.99
2023-09-18T07:31:07.359Z,94.80
2023-09-18T07:33:34.482Z,94.79
2023-09-18T07:36:01.908Z,94.66
2023-09-18T07:38:30.074Z,94.69
2023-09-18T07:40:58.079Z,94.59
2023-09-18T07:43:26.120Z,94.56
2023-09-18T07:45:54.632Z,94.37
2023-09-18T07:48:23.322Z,94.28
2023-09-18T07:50:52.102Z,94.34
2023-09-18T07:53:19.986Z,94.14
2023-09-18T07:55:49.160Z,94.07
2023-09-18T07:58:15.945Z,94.19
2023-09-18T08:00:42.791Z,94.14
2023-09-18T08:03:10.069Z,94.18
2023-09-18T08:05:37.022Z,94.04
2023-09-18T08:08:06.739Z,93.96
2023-09-18T08:10:37.600Z,93.93
2023-09-18T08:13:05.775Z,93.72
2023-09-18T08:15:32.565Z,93.76
2023-09-18T08:18:00.109Z,93.82
2023-09-18T08:20:27.648Z,93.56
2023-09-18T08:22:56.199Z,93.52
2023-09-18T08:25:24.423Z,93.37
2023-09-18T08:27:51.208Z,93.43
2023-09-18T08:30:22.070Z,93.26
2023-09-18T08:32:49.349Z,93.20
2023-09-18T08:35:16.232Z,92.97
2023-09-18T08:37:43.920Z,92.93
2023-09-18T08:40:11.974Z,92.69
2023-09-18T08:42:42.169Z,92.96
2023-09-18T08:45:11.981Z,92.97
2023-09-18T08:47:42.394Z,92.75
2023-09-18T08:50:13.609Z,92.76
2023-09-18T08:52:41.078Z,92.61
2023-09-18T08:55:10.446Z,92.41
2023-09-18T08:57:39.323Z,92.40
2023-09-18T09:00:08.788Z,92.27
2023-09-18T09:02:36.847Z,92.34
2023-09-18T09:05:05.927Z,92.20
2023-09-18T09:07:32.945Z,92.16
2023-09-18T09:09:59.924Z,92.02
2023-09-18T09:12:52.677Z,91.85
2023-09-18T09:15:20.201Z,91.67
2023-09-18T09:17:47.341Z,91.65
2023-09-18T09:20:17.109Z,91.53
2023-09-18T09:22:44.023Z,91.57
2023-09-18T09:25:25.511Z,91.43
2023-09-18T09:27:52.188Z,91.55
2023-09-18T09:30:21.373Z,91.35
2023-09-18T09:32:50.557Z,91.23
2023-09-18T09:35:30.116Z,91.22
2023-09-18T09:37:58.703Z,91.25
2023-09-18T09:40:26.937Z,91.03
2023-09-18T09:42:58.613Z,90.88
2023-09-18T09:45:25.390Z,90.85
2023-09-18T09:47:55.448Z,90.71
2023-09-18T09:50:27.333Z,90.55
2023-09-18T09:52:55.910Z,90.35
2023-09-18T09:55:29.555Z,90.26
2023-09-18T09:57:59.082Z,90.27
2023-09-18T10:00:31.591Z,89.96
2023-09-18T10:03:00.290Z,89.92
2023-09-18T10:05:34.207Z,89.79
2023-09-18T10:08:04.903Z,89.64
2023-09-18T10:10:34.898Z,89.33
2023-09-18T10:13:08.654Z,89.29
2023-09-18T10:15:39.953Z,89.19
2023-09-18T10:18:12.509Z,89.08
2023-09-18T10:20:45.168Z,88.45
2023-09-18T10:23:25.457Z,88.41
2023-09-18T10:25:56.598Z,88.14
2023-09-18T10:28:28.932Z,87.86
2023-09-18T10:30:58.173Z,87.91
2023-09-18T10:33:26.014Z,87.48
2023-09-18T10:35:57.088Z,87.41
2023-09-18T10:38:24.506Z,87.22
2023-09-18T10:40:52.282Z,86.94
2023-09-18T10:43:19.886Z,86.94
2023-09-18T10:45:47.482Z,86.66
2023-09-18T10:48:16.352Z,86.47
2023-09-18T10:50:44.704Z,86.12
2023-09-18T10:53:13.928Z,85.78
2023-09-18T10:55:43.143Z,85.46
2023-09-18T10:58:10.093Z,85.31
2023-09-18T11:00:37.910Z,85.21
2023-09-18T11:03:13.229Z,85.10
2023-09-18T11:05:40.147Z,84.83
2023-09-18T11:08:28.739Z,84.55
2023-09-18T11:11:11.229Z,84.64
2023-09-18T11:13:42.061Z,84.32
2023-09-18T11:16:20.652Z,84.31
2023-09-18T11:18:53.684Z,84.14
2023-09-18T11:21:26.315Z,84.02
2023-09-18T11:24:02.293Z,83.95
2023-09-18T11:26:33.437Z,83.25
2023-09-18T11:29:02.394Z,83.49
2023-09-18T11:31:46.182Z,83.18
2023-09-18T11:34:14.637Z,83.11
2023-09-18T11:36:41.726Z,83.01
2023-09-18T11:39:10.610Z,82.93
2023-09-18T11:41:39.690Z,82.82
2023-09-18T11:44:38.191Z,82.83
2023-09-18T11:47:08.987Z,83.02
2023-09-18T11:49:36.482Z,83.37
2023-09-18T11:52:06.914Z,83.60
2023-09-18T11:54:35.678Z,84.17
2023-09-18T11:57:05.977Z,84.05
2023-09-18T11:59:38.819Z,84.43
2023-09-18T12:02:07.443Z,84.56
2023-09-18T12:04:34.485Z,84.66
2023-09-18T12:07:01.603Z,84.79
2023-09-18T12:09:28.615Z,84.98
2023-09-18T12:11:58.418Z,84.56
2023-09-18T12:14:25.417Z,84.06
2023-09-18T12:16:52.225Z,84.22
2023-09-18T12:19:20.058Z,83.91
2023-09-18T12:21:51.013Z,83.57
2023-09-18T12:24:23.170Z,83.30
2023-09-18T12:26:50.454Z,83.02
2023-09-18T12:29:18.790Z,82.70
2023-09-18T12:31:46.774Z,82.49
2023-09-18T12:34:17.582Z,82.11
2023-09-18T12:36:44.931Z,82.04
2023-09-18T12:39:11.882Z,82.02
2023-09-18T12:41:39.199Z,81.72
2023-09-18T12:44:07.224Z,81.40
2023-09-18T12:46:35.857Z,81.05
2023-09-18T12:49:17.046Z,80.70
2023-09-18T12:51:45.495Z,80.25
2023-09-18T12:54:14.754Z,80.25
2023-09-18T12:56:42.365Z,80.17
2023-09-18T12:59:15.344Z,80.00
2023-09-18T13:01:47.983Z,79.45
2023-09-18T13:04:15.073Z,79.18
2023-09-18T13:06:42.618Z,78.65
2023-09-18T13:09:20.878Z,77.94
2023-09-18T13:11:57.789Z,76.93
2023-09-18T13:14:28.250Z,76.74
2023-09-18T13:17:01.634Z,76.32
2023-09-18T13:19:28.706Z,76.06
2023-09-18T13:21:56.670Z,76.15
2023-09-18T13:24:30.334Z,75.89
2023-09-18T13:26:58.047Z,76.17
2023-09-18T13:29:25.237Z,76.06
2023-09-18T13:31:52.485Z,75.99
2023-09-18T13:34:20.739Z,75.70
2023-09-18T13:36:47.824Z,75.65
2023-09-18T13:39:18.050Z,75.75
2023-09-18T13:41:45.602Z,75.90
2023-09-18T13:44:12.658Z,75.67
2023-09-18T13:46:39.647Z,75.45
2023-09-18T13:49:07.048Z,75.41
2023-09-18T13:51:35.321Z,75.20
2023-09-18T13:54:02.112Z,75.09
2023-09-18T13:56:30.575Z,75.07
2023-09-18T13:58:57.382Z,75.04
2023-09-18T14:01:25.923Z,74.79
2023-09-18T14:03:52.753Z,74.94
2023-09-18T14:06:19.816Z,74.62
2023-09-18T14:08:48.182Z,74.41
2023-09-18T14:11:15.408Z,74.36
2023-09-18T14:13:43.404Z,74.10
2023-09-18T14:16:11.907Z,73.70
2023-09-18T14:18:38.782Z,73.01
2023-09-18T14:21:06.744Z,72.81
2023-09-18T14:23:35.291Z,72.81
2023-09-18T14:26:03.812Z,72.79
2023-09-18T14:28:30.596Z,72.39
2023-09-18T14:30:57.337Z,72.00
2023-09-18T14:33:24.266Z,71.61
2023-09-18T14:35:51.258Z,70.86
2023-09-18T14:38:18.149Z,70.36
2023-09-18T14:40:44.850Z,70.26
2023-09-18T14:43:13.003Z,70.37
2023-09-18T14:45:41.380Z,70.12
2023-09-18T14:48:11.083Z,70.15
2023-09-18T14:50:38.131Z,70.33
2023-09-18T14:53:05.417Z,70.37
2023-09-18T14:55:32.373Z,70.17
2023-09-18T14:57:59.279Z,70.33
2023-09-18T15:00:27.478Z,70.27
2023-09-18T15:02:54.393Z,70.31
2023-09-18T15:05:21.296Z,70.19
2023-09-18T15:07:48.088Z,70.25
2023-09-18T15:10:14.811Z,70.45
2023-09-18T15:12:42.621Z,70.58
2023-09-18T15:15:10.037Z,70.74
2023-09-18T15:17:39.776Z,70.85
2023-09-18T15:20:15.531Z,71.00
2023-09-18T15:22:42.317Z,71.07
2023-09-18T15:25:09.629Z,71.21
2023-09-18T15:27:36.720Z,71.37
2023-09-18T15:30:06.126Z,71.17
2023-09-18T15:32:51.737Z,71.06
2023-09-18T15:35:18.874Z,70.97
2023-09-18T15:37:45.805Z,70.91
2023-09-18T15:40:14.684Z,70.01
2023-09-18T15:42:41.422Z,69.66
2023-09-18T15:45:12.261Z,70.42
2023-09-18T15:47:39.319Z,71.47
2023-09-18T15:50:08.174Z,72.51
2023-09-18T15:52:34.977Z,73.48
2023-09-18T15:55:02.769Z,74.31
2023-09-18T15:57:30.011Z,75.00
2023-09-18T15:59:56.961Z,75.58
2023-09-18T16:02:24.855Z,76.03
2023-09-18T16:04:54.110Z,76.52
2023-09-18T16:07:22.652Z,76.94
2023-09-18T16:09:49.397Z,77.03
2023-09-18T16:12:16.221Z,77.48
2023-09-18T16:14:43.160Z,77.52
2023-09-18T16:17:09.960Z,77.89
2023-09-18T16:19:37.039Z,78.29
2023-09-18T16:22:05.659Z,78.38
2023-09-18T16:24:33.982Z,78.54
2023-09-18T16:27:00.791Z,78.81
2023-09-18T16:29:29.024Z,79.08
2023-09-18T16:31:56.120Z,79.32
2023-09-18T16:34:25.667Z,79.38
2023-09-18T16:36:53.017Z,79.56
2023-09-18T16:39:22.890Z,79.72
2023-09-18T16:41:51.040Z,80.01
2023-09-18T16:44:17.992Z,80.27
2023-09-18T16:46:44.664Z,80.38
2023-09-18T16:49:13.290Z,80.59
2023-09-18T16:51:40.955Z,80.78
2023-09-18T16:54:07.819Z,81.03
2023-09-18T16:56:36.300Z,81.35
2023-09-18T16:59:04.555Z,81.55
2023-09-18T17:01:31.659Z,81.70
2023-09-18T17:03:59.188Z,81.80
2023-09-18T17:06:27.981Z,81.77
2023-09-18T17:08:54.990Z,81.88
2023-09-18T17:11:23.794Z,82.09
2023-09-18T17:13:50.493Z,82.65
2023-09-18T17:16:20.896Z,82.51
2023-09-18T17:18:47.645Z,82.60
2023-09-18T17:21:15.374Z,82.98
2023-09-18T17:23:43.761Z,83.09
2023-09-18T17:26:12.098Z,83.13
2023-09-18T17:28:38.775Z,83.20
2023-09-18T17:31:06.290Z,83.46
2023-09-18T17:33:34.578Z,83.42
2023-09-18T17:36:01.442Z,83.53
2023-09-18T17:38:28.259Z,83.65
2023-09-18T17:40:55.147Z,83.67
2023-09-18T17:43:21.916Z,83.93
2023-09-18T17:45:48.771Z,84.03
2023-09-18T17:48:15.926Z,84.21
2023-09-18T17:50:44.133Z,84.10
2023-09-18T17:53:10.867Z,84.22
2023-09-18T17:55:38.475Z,84.38
2023-09-18T17:58:05.243Z,84.51
2023-09-18T18:00:32.034Z,84.54
2023-09-18T18:02:58.984Z,84.77
2023-09-18T18:05:30.129Z,84.66
2023-09-18T18:07:58.830Z,84.77
2023-09-18T18:10:25.587Z,84.73
2023-09-18T18:12:52.306Z,84.89
2023-09-18T18:15:19.362Z,84.92
2023-09-18T18:17:46.545Z,85.08
2023-09-18T18:20:16.813Z,85.04
2023-09-18T18:22:43.584Z,85.14
2023-09-18T18:25:13.869Z,85.29
2023-09-18T18:27:40.646Z,85.30
2023-09-18T18:30:08.969Z,85.34
2023-09-18T18:32:36.891Z,85.07
2023-09-18T18:35:03.903Z,85.30
2023-09-18T18:37:33.724Z,85.39
2023-09-18T18:40:00.700Z,85.42
2023-09-18T18:42:29.977Z,85.42
2023-09-18T18:44:57.665Z,85.63
2023-09-18T18:47:26.154Z,85.57
2023-09-18T18:49:53.107Z,85.66
2023-09-18T18:52:19.832Z,85.63
2023-09-18T18:54:49.620Z,85.46
2023-09-18T18:57:18.074Z,85.58
2023-09-18T18:59:46.576Z,85.59
2023-09-18T19:02:13.773Z,85.64
2023-09-18T19:04:40.573Z,85.66
2023-09-18T19:07:07.802Z,85.61
2023-09-18T19:09:35.230Z,85.74
2023-09-18T19:12:02.196Z,85.79
2023-09-18T19:14:29.827Z,85.73
2023-09-18T19:17:00.194Z,85.72
2023-09-18T19:19:26.964Z,85.81
2023-09-18T19:21:53.677Z,85.81
2023-09-18T19:24:21.408Z,85.81
2023-09-18T19:26:48.905Z,85.83
2023-09-18T19:29:17.415Z,85.80
2023-09-18T19:31:48.103Z,85.73
2023-09-18T19:34:16.589Z,85.75
2023-09-18T19:36:52.539Z,85.77
2023-09-18T19:39:25.960Z,85.92
2023-09-18T19:41:58.024Z,85.98
2023-09-18T19:44:26.136Z,85.75
2023-09-18T19:46:53.091Z,85.85
2023-09-18T19:49:21.849Z,85.86
2023-09-18T19:51:48.892Z,85.89
2023-09-18T19:54:16.227Z,85.89
2023-09-18T19:56:43.174Z,85.99
2023-09-18T19:59:10.030Z,85.82
2023-09-18T20:01:36.975Z,85.74
2023-09-18T20:04:06.045Z,85.75
2023-09-18T20:06:34.404Z,85.82
2023-09-18T20:09:04.203Z,85.78
2023-09-18T20:11:31.633Z,85.65
2023-09-18T20:13:59.223Z,85.71
2023-09-18T20:16:26.054Z,85.64
2023-09-18T20:18:53.744Z,85.50
2023-09-18T20:21:22.144Z,85.26
2023-09-18T20:23:50.418Z,85.31
2023-09-18T20:26:17.170Z,85.02
2023-09-18T20:28:44.229Z,85.14
2023-09-18T20:31:10.962Z,85.13
2023-09-18T20:33:37.917Z,84.99
2023-09-18T20:36:05.206Z,84.87
2023-09-18T20:38:32.660Z,84.78
2023-09-18T20:41:00.988Z,84.64
2023-09-18T20:43:27.931Z,84.38
2023-09-18T20:45:55.698Z,84.32
2023-09-18T20:48:22.706Z,84.06
2023-09-18T20:50:50.063Z,83.79
2023-09-18T20:53:18.993Z,83.47
2023-09-18T20:55:45.895Z,83.01
2023-09-18T20:58:14.538Z,83.08
2023-09-18T21:00:41.274Z,82.73
2023-09-18T21:03:08.292Z,82.65
2023-09-18T21:05:35.286Z,82.62
2023-09-18T21:08:03.316Z,82.20
2023-09-18T21:12:59.936Z,82.17
2023-09-18T21:15:29.114Z,82.21
2023-09-18T21:17:56.158Z,82.05
2023-09-18T21:20:23.454Z,81.92
2023-09-18T21:22:50.336Z,82.11
2023-09-18T21:25:17.892Z,82.07
2023-09-18T21:27:44.795Z,82.06
2023-09-18T21:30:12.413Z,82.11
2023-09-18T21:32:40.743Z,82.01
2023-09-18T21:35:08.256Z,81.77
2023-09-18T21:37:35.056Z,81.77
2023-09-18T21:40:06.122Z,81.60
2023-09-18T21:42:33.285Z,81.72
2023-09-18T21:45:06.534Z,81.64
2023-09-18T21:47:34.462Z,81.62
2023-09-18T21:50:05.518Z,81.71
2023-09-18T21:52:32.554Z,81.70
2023-09-18T21:54:59.632Z,81.59
2023-09-18T21:57:26.526Z,81.68
2023-09-18T21:59:54.497Z,81.58
2023-09-18T22:02:21.920Z,81.54
2023-09-18T22:04:48.749Z,81.63
2023-09-18T22:07:16.957Z,81.51
2023-09-18T22:09:49.524Z,81.28
2023-09-18T22:12:16.474Z,81.55
2023-09-18T22:14:43.927Z,81.48
2023-09-18T22:17:10.787Z,81.63
2023-09-18T22:19:37.537Z,81.57
2023-09-18T22:22:04.465Z,81.56
2023-09-18T22:24:32.732Z,81.53
2023-09-18T22:26:59.502Z,81.42
2023-09-18T22:29:26.614Z,81.31
2023-09-18T22:31:54.850Z,81.49
2023-09-18T22:34:22.233Z,81.44
2023-09-18T22:36:51.867Z,81.55
2023-09-18T22:39:40.840Z,81.46
2023-09-18T22:42:17.512Z,81.34
2023-09-18T22:45:21.939Z,81.31
2023-09-18T22:48:26.440Z,81.36
2023-09-18T22:51:30.525Z,81.33
2023-09-18T22:53:57.402Z,81.42
2023-09-18T22:56:27.040Z,81.43
2023-09-18T22:58:54.486Z,81.34
2023-09-18T23:01:21.788Z,81.36
2023-09-18T23:03:48.902Z,81.36
2023-09-18T23:06:16.055Z,81.49
2023-09-18T23:08:42.936Z,81.78
2023-09-18T23:11:09.901Z,82.11
2023-09-18T23:13:38.495Z,82.22
2023-09-18T23:16:05.548Z,82.21
2023-09-18T23:18:33.752Z,82.27
2023-09-18T23:21:01.522Z,82.50
2023-09-18T23:23:28.318Z,82.63
2023-09-18T23:25:55.394Z,82.51
2023-09-18T23:28:22.253Z,82.58
2023-09-18T23:30:52.723Z,82.46
2023-09-18T23:33:21.325Z,82.44
2023-09-18T23:35:48.117Z,82.39
2023-09-18T23:38:17.448Z,82.50
2023-09-18T23:40:45.853Z,82.31
2023-09-18T23:43:12.967Z,82.36
2023-09-18T23:45:44.861Z,82.44
2023-09-18T23:48:16.399Z,82.31
2023-09-18T23:50:43.726Z,82.40
2023-09-18T23:53:14.356Z,82.36
2023-09-18T23:55:42.545Z,82.38
2023-09-18T23:58:18.075Z,82.36
